Time,TemperatureF,DewpointF,PressureIn,WindDirection,WindDirectionDegrees,WindSpeedMPH,WindSpeedGustMPH,Humidity,HourlyPrecipIn,Conditions,Clouds,dailyrainin,SoftwareType,DateUTC
2013-02-11 00:02:00,13.6,6.9,30.39,NW,314,0.0,0.0,74,0.00,,,0.00,WUHU216DAVISWMX,2013-02-11 05:02:00,
2013-02-11 00:07:00,13.5,6.8,30.39,NW,314,0.0,0.0,74,0.00,,,0.00,WUHU216DAVISWMX,2013-02-11 05:07:00,
2013-02-11 00:12:00,13.6,7.2,30.39,NW,314,0.0,0.0,75,0.00,,,0.00,WUHU216DAVISWMX,2013-02-11 05:12:00,
2013-02-11 00:17:00,13.5,7.1,30.39,NW,314,0.0,0.0,75,0.00,,,0.00,WUHU216DAVISWMX,2013-02-11 05:17:00,
2013-02-11 00:22:00,13.5,7.1,30.39,NW,314,0.0,0.0,75,0.00,,,0.00,WUHU216DAVISWMX,2013-02-11 05:22:00,
2013-02-11 00:27:00,13.6,7.7,30.39,NW,314,0.0,0.0,77,0.00,,,0.00,WUHU216DAVISWMX,2013-02-11 05:27:00,
2013-02-11 00:32:00,13.7,7.6,30.39,NW,314,0.0,0.0,76,0.00,,,0.00,WUHU216DAVISWMX,2013-02-11 05:32:00,
2013-02-11 00:37:00,13.7,7.6,30.38,NW,314,0.0,0.0,76,0.00,,,0.00,WUHU216DAVISWMX,2013-02-11 05:37:00,
2013-02-11 00:42:00,13.7,7.6,30.38,NW,314,0.0,0.0,76,0.00,,,0.00,WUHU216DAVISWMX,2013-02-11 05:42:00,
2013-02-11 00:47:00,13.7,7.8,30.38,NW,314,0.0,0.0,77,0.00,,,0.00,WUHU216DAVISWMX,2013-02-11 05:47:00,
2013-02-11 00:52:00,13.8,7.9,30.37,NW,314,0.0,0.0,77,0.00,,,0.00,WUHU216DAVISWMX,2013-02-11 05:52:00,
2013-02-11 00:57:00,13.6,7.5,30.38,NW,314,0.0,0.0,76,0.00,,,0.00,WUHU216DAVISWMX,2013-02-11 05:57:00,
2013-02-11 01:02:00,13.8,7.9,30.37,NW,314,0.0,0.0,77,0.00,,,0.00,WUHU216DAVISWMX,2013-02-11 06:02:00,
2013-02-11 01:07:00,13.9,8.0,30.37,NW,314,0.0,0.0,77,0.00,,,0.00,WUHU216DAVISWMX,2013-02-11 06:07:00,
2013-02-11 01:12:00,13.9,8.0,30.37,NW,314,0.0,0.0,77,0.00,,,0.00,WUHU216DAVISWMX,2013-02-11 06:12:00,
2013-02-11 01:17:00,13.7,7.8,30.37,NW,314,0.0,0.0,77,0.00,,,0.00,WUHU216DAVISWMX,2013-02-11 06:17:00,
2013-02-11 01:23:00,14.1,8.8,30.37,NW,314,0.0,0.0,79,0.00,,,0.00,WUHU216DAVISWMX,2013-02-11 06:23:00,
2013-02-11 01:28:00,14.1,8.2,30.36,NW,314,0.0,0.0,77,0.00,,,0.00,WUHU216DAVISWMX,2013-02-11 06:28:00,
2013-02-11 01:33:00,13.9,8.0,30.36,NW,314,0.0,0.0,77,0.00,,,0.00,WUHU216DAVISWMX,2013-02-11 06:33:00,
2013-02-11 01:38:00,13.8,7.9,30.36,NW,314,0.0,0.0,77,0.00,,,0.00,WUHU216DAVISWMX,2013-02-11 06:38:00,
2013-02-11 01:43:00,13.8,7.9,30.36,NW,314,0.0,0.0,77,0.00,,,0.00,WUHU216DAVISWMX,2013-02-11 06:43:00,
2013-02-11 01:48:00,13.8,7.9,30.36,NW,314,0.0,0.0,77,0.00,,,0.00,WUHU216DAVISWMX,2013-02-11 06:48:00,
2013-02-11 01:53:00,13.7,8.1,30.35,NW,314,0.0,0.0,78,0.00,,,0.00,WUHU216DAVISWMX,2013-02-11 06:53:00,
2013-02-11 01:58:00,13.8,8.2,30.35,NW,314,0.0,0.0,78,0.00,,,0.00,WUHU216DAVISWMX,2013-02-11 06:58:00,
2013-02-11 02:03:00,13.8,8.2,30.35,NW,314,0.0,0.0,78,0.00,,,0.00,WUHU216DAVISWMX,2013-02-11 07:03:00,
2013-02-11 02:08:00,13.7,8.1,30.35,NW,314,0.0,0.0,78,0.00,,,0.00,WUHU216DAVISWMX,2013-02-11 07:08:00,
2013-02-11 02:13:00,13.8,8.2,30.35,NW,314,0.0,0.0,78,0.00,,,0.00,WUHU216DAVISWMX,2013-02-11 07:13:00,
2013-02-11 02:18:00,13.7,8.1,30.35,NW,314,0.0,0.0,78,0.00,,,0.00,WUHU216DAVISWMX,2013-02-11 07:18:00,
2013-02-11 02:23:00,13.8,8.5,30.35,NW,314,0.0,0.0,79,0.00,,,0.00,WUHU216DAVISWMX,2013-02-11 07:23:00,
2013-02-11 02:28:00,14.0,8.7,30.34,NW,314,0.0,0.0,79,0.00,,,0.00,WUHU216DAVISWMX,2013-02-11 07:28:00,
2013-02-11 02:33:00,14.1,8.5,30.34,NW,314,0.0,0.0,78,0.00,,,0.00,WUHU216DAVISWMX,2013-02-11 07:33:00,
2013-02-11 02:38:00,14.0,8.4,30.34,NW,314,0.0,0.0,78,0.00,,,0.00,WUHU216DAVISWMX,2013-02-11 07:38:00,
2013-02-11 02:43:00,14.2,8.6,30.34,NW,314,0.0,0.0,78,0.00,,,0.00,WUHU216DAVISWMX,2013-02-11 07:43:00,
2013-02-11 02:48:00,14.1,8.5,30.34,NW,314,0.0,0.0,78,0.00,,,0.00,WUHU216DAVISWMX,2013-02-11 07:48:00,
2013-02-11 02:53:00,14.1,8.5,30.34,NW,314,0.0,0.0,78,0.00,,,0.00,WUHU216DAVISWMX,2013-02-11 07:53:00,
2013-02-11 02:58:00,14.3,8.7,30.34,NW,314,0.0,0.0,78,0.00,,,0.00,WUHU216DAVISWMX,2013-02-11 07:58:00,
2013-02-11 03:03:00,14.4,9.1,30.33,NW,314,0.0,0.0,79,0.00,,,0.00,WUHU216DAVISWMX,2013-02-11 08:03:00,
2013-02-11 03:08:00,14.5,9.2,30.33,NW,314,0.0,0.0,79,0.00,,,0.00,WUHU216DAVISWMX,2013-02-11 08:08:00,
2013-02-11 03:13:00,14.6,9.3,30.33,NW,314,0.0,0.0,79,0.00,,,0.00,WUHU216DAVISWMX,2013-02-11 08:13:00,
2013-02-11 03:18:00,14.7,9.4,30.33,NW,314,0.0,0.0,79,0.00,,,0.00,WUHU216DAVISWMX,2013-02-11 08:18:00,
2013-02-11 03:23:00,15.0,9.7,30.33,NW,314,0.0,0.0,79,0.00,,,0.00,WUHU216DAVISWMX,2013-02-11 08:23:00,
2013-02-11 03:28:00,15.2,9.9,30.33,NW,314,0.0,0.0,79,0.00,,,0.00,WUHU216DAVISWMX,2013-02-11 08:28:00,
2013-02-11 03:33:00,15.3,10.0,30.33,NW,314,0.0,0.0,79,0.00,,,0.00,WUHU216DAVISWMX,2013-02-11 08:33:00,
2013-02-11 03:38:00,15.3,10.0,30.32,NW,314,0.0,0.0,79,0.00,,,0.00,WUHU216DAVISWMX,2013-02-11 08:38:00,
2013-02-11 03:43:00,15.7,10.3,30.32,NW,314,0.0,0.0,79,0.00,,,0.00,WUHU216DAVISWMX,2013-02-11 08:43:00,
2013-02-11 03:48:00,15.5,9.9,30.32,NW,314,0.0,0.0,78,0.00,,,0.00,WUHU216DAVISWMX,2013-02-11 08:48:00,
2013-02-11 03:53:00,15.5,9.9,30.33,NW,314,0.0,0.0,78,0.00,,,0.00,WUHU216DAVISWMX,2013-02-11 08:53:00,
2013-02-11 03:58:00,15.6,10.3,30.32,NW,314,0.0,0.0,79,0.00,,,0.00,WUHU216DAVISWMX,2013-02-11 08:58:00,
2013-02-11 04:03:00,15.8,10.7,30.32,NW,314,0.0,0.0,80,0.00,,,0.00,WUHU216DAVISWMX,2013-02-11 09:03:00,
2013-02-11 04:08:00,16.2,11.1,30.32,NW,314,0.0,0.0,80,0.00,,,0.00,WUHU216DAVISWMX,2013-02-11 09:08:00,
2013-02-11 04:13:00,16.2,10.8,30.31,NW,314,0.0,0.0,79,0.00,,,0.00,WUHU216DAVISWMX,2013-02-11 09:13:00,
2013-02-11 04:18:00,16.2,10.8,30.31,NW,314,0.0,0.0,79,0.00,,,0.00,WUHU216DAVISWMX,2013-02-11 09:18:00,
2013-02-11 04:23:00,16.2,10.8,30.31,NW,314,0.0,0.0,79,0.00,,,0.00,WUHU216DAVISWMX,2013-02-11 09:23:00,
2013-02-11 04:28:00,16.3,10.9,30.30,NW,314,0.0,0.0,79,0.00,,,0.00,WUHU216DAVISWMX,2013-02-11 09:28:00,
2013-02-11 04:33:00,16.4,11.0,30.30,NW,314,0.0,0.0,79,0.00,,,0.00,WUHU216DAVISWMX,2013-02-11 09:33:00,
2013-02-11 04:38:00,16.4,11.0,30.30,NW,314,0.0,0.0,79,0.00,,,0.00,WUHU216DAVISWMX,2013-02-11 09:38:00,
2013-02-11 04:43:00,16.4,11.0,30.30,NW,314,0.0,0.0,79,0.00,,,0.00,WUHU216DAVISWMX,2013-02-11 09:43:00,
2013-02-11 04:48:00,16.4,11.0,30.30,NW,314,0.0,0.0,79,0.00,,,0.00,WUHU216DAVISWMX,2013-02-11 09:48:00,
2013-02-11 04:53:00,16.5,11.4,30.30,NW,314,0.0,0.0,80,0.00,,,0.00,WUHU216DAVISWMX,2013-02-11 09:53:00,
2013-02-11 04:58:00,16.6,11.5,30.30,NW,314,0.0,0.0,80,0.00,,,0.00,WUHU216DAVISWMX,2013-02-11 09:58:00,
2013-02-11 05:03:00,16.8,11.4,30.30,NW,314,0.0,0.0,79,0.00,,,0.00,WUHU216DAVISWMX,2013-02-11 10:03:00,
2013-02-11 05:08:00,16.8,11.4,30.29,NW,314,0.0,0.0,79,0.00,,,0.00,WUHU216DAVISWMX,2013-02-11 10:08:00,
2013-02-11 05:13:00,16.8,11.4,30.30,NW,314,0.0,0.0,79,0.00,,,0.00,WUHU216DAVISWMX,2013-02-11 10:13:00,
2013-02-11 05:18:00,16.7,11.3,30.30,NW,314,0.0,0.0,79,0.00,,,0.00,WUHU216DAVISWMX,2013-02-11 10:18:00,
2013-02-11 05:23:00,17.0,11.6,30.30,NW,314,0.0,0.0,79,0.00,,,0.00,WUHU216DAVISWMX,2013-02-11 10:23:00,
2013-02-11 05:28:00,16.9,11.8,30.30,NW,314,0.0,0.0,80,0.00,,,0.00,WUHU216DAVISWMX,2013-02-11 10:28:00,
2013-02-11 05:33:00,17.0,11.9,30.30,NW,314,0.0,0.0,80,0.00,,,0.00,WUHU216DAVISWMX,2013-02-11 10:33:00,
2013-02-11 05:38:00,17.1,12.0,30.30,NW,314,0.0,0.0,80,0.00,,,0.00,WUHU216DAVISWMX,2013-02-11 10:38:00,
2013-02-11 05:43:00,17.3,12.5,30.30,NW,314,0.0,0.0,81,0.00,,,0.00,WUHU216DAVISWMX,2013-02-11 10:43:00,
2013-02-11 05:48:00,17.4,12.0,30.30,NW,314,0.0,0.0,79,0.00,,,0.00,WUHU216DAVISWMX,2013-02-11 10:48:00,
2013-02-11 05:53:00,17.5,12.1,30.30,NW,314,0.0,0.0,79,0.00,,,0.00,WUHU216DAVISWMX,2013-02-11 10:53:00,
2013-02-11 05:58:00,17.7,12.6,30.29,NW,314,0.0,0.0,80,0.00,,,0.00,WUHU216DAVISWMX,2013-02-11 10:58:00,
2013-02-11 06:03:00,17.9,12.8,30.29,NW,314,0.0,0.0,80,0.00,,,0.00,WUHU216DAVISWMX,2013-02-11 11:03:00,
2013-02-11 06:08:00,17.9,12.5,30.29,NW,314,0.0,0.0,79,0.00,,,0.00,WUHU216DAVISWMX,2013-02-11 11:08:00,
2013-02-11 06:13:00,17.8,12.1,30.29,NW,314,0.0,0.0,78,0.00,,,0.00,WUHU216DAVISWMX,2013-02-11 11:13:00,
2013-02-11 06:18:00,17.8,12.4,30.29,NW,314,0.0,0.0,79,0.00,,,0.00,WUHU216DAVISWMX,2013-02-11 11:18:00,
2013-02-11 06:23:00,17.9,12.8,30.29,NW,314,0.0,0.0,80,0.00,,,0.00,WUHU216DAVISWMX,2013-02-11 11:23:00,
2013-02-11 06:28:00,17.9,12.8,30.29,NW,314,0.0,0.0,80,0.00,,,0.00,WUHU216DAVISWMX,2013-02-11 11:28:00,
2013-02-11 06:33:00,18.1,13.0,30.28,NW,314,0.0,0.0,80,0.00,,,0.00,WUHU216DAVISWMX,2013-02-11 11:33:00,
2013-02-11 06:38:00,18.2,12.8,30.29,NW,314,0.0,0.0,79,0.00,,,0.00,WUHU216DAVISWMX,2013-02-11 11:38:00,
2013-02-11 06:43:00,18.1,12.7,30.28,NW,314,0.0,0.0,79,0.00,,,0.00,WUHU216DAVISWMX,2013-02-11 11:43:00,
2013-02-11 06:48:00,18.3,13.2,30.27,NW,314,0.0,0.0,80,0.00,,,0.00,WUHU216DAVISWMX,2013-02-11 11:48:00,
2013-02-11 06:53:00,18.5,13.1,30.27,NW,314,0.0,0.0,79,0.00,,,0.00,WUHU216DAVISWMX,2013-02-11 11:53:00,
2013-02-11 06:58:00,18.7,13.6,30.26,NW,314,0.0,0.0,80,0.00,,,0.00,WUHU216DAVISWMX,2013-02-11 11:58:00,
2013-02-11 07:03:00,18.8,13.4,30.26,NW,314,0.0,0.0,79,0.00,,,0.00,WUHU216DAVISWMX,2013-02-11 12:03:00,
2013-02-11 07:08:00,18.9,13.7,30.26,NW,314,0.0,0.0,80,0.00,,,0.00,WUHU216DAVISWMX,2013-02-11 12:08:00,
2013-02-11 07:13:00,18.9,13.7,30.26,NW,314,0.0,0.0,80,0.00,,,0.00,WUHU216DAVISWMX,2013-02-11 12:13:00,
2013-02-11 07:18:00,18.9,13.5,30.25,NW,314,0.0,0.0,79,0.00,,,0.00,WUHU216DAVISWMX,2013-02-11 12:18:00,
2013-02-11 07:23:00,18.9,13.5,30.24,NW,314,0.0,0.0,79,0.00,,,0.00,WUHU216DAVISWMX,2013-02-11 12:23:00,
2013-02-11 07:28:00,19.0,13.6,30.24,NW,314,0.0,0.0,79,0.00,,,0.00,WUHU216DAVISWMX,2013-02-11 12:28:00,
2013-02-11 07:33:00,19.1,14.2,30.25,NW,314,0.0,0.0,81,0.00,,,0.00,WUHU216DAVISWMX,2013-02-11 12:33:00,
2013-02-11 07:38:00,19.2,14.3,30.25,NW,314,0.0,0.0,81,0.00,,,0.00,WUHU216DAVISWMX,2013-02-11 12:38:00,
2013-02-11 07:43:00,19.3,14.4,30.25,NW,314,0.0,0.0,81,0.00,,,0.00,WUHU216DAVISWMX,2013-02-11 12:43:00,
2013-02-11 07:48:00,19.4,14.5,30.25,NW,314,0.0,0.0,81,0.00,,,0.00,WUHU216DAVISWMX,2013-02-11 12:48:00,
2013-02-11 07:54:00,19.6,14.4,30.24,NW,314,0.0,0.0,80,0.00,,,0.00,WUHU216DAVISWMX,2013-02-11 12:54:00,
2013-02-11 07:59:00,19.6,14.4,30.23,NW,314,0.0,0.0,80,0.00,,,0.00,WUHU216DAVISWMX,2013-02-11 12:59:00,
2013-02-11 08:04:00,19.7,14.5,30.23,NW,314,0.0,0.0,80,0.00,,,0.00,WUHU216DAVISWMX,2013-02-11 13:04:00,
2013-02-11 08:09:00,19.9,14.7,30.22,NW,314,0.0,0.0,80,0.00,,,0.00,WUHU216DAVISWMX,2013-02-11 13:09:00,
2013-02-11 08:14:00,20.2,15.3,30.21,NW,314,0.0,0.0,81,0.00,,,0.00,WUHU216DAVISWMX,2013-02-11 13:14:00,
2013-02-11 08:19:00,20.3,15.4,30.21,NW,314,0.0,0.0,81,0.00,,,0.00,WUHU216DAVISWMX,2013-02-11 13:19:00,
2013-02-11 08:24:00,20.4,15.2,30.21,NW,314,0.0,0.0,80,0.00,,,0.00,WUHU216DAVISWMX,2013-02-11 13:24:00,
2013-02-11 08:29:00,20.4,15.2,30.20,NW,314,0.0,0.0,80,0.00,,,0.00,WUHU216DAVISWMX,2013-02-11 13:29:00,
2013-02-11 08:34:00,20.5,15.6,30.19,NW,314,0.0,0.0,81,0.00,,,0.00,WUHU216DAVISWMX,2013-02-11 13:34:00,
2013-02-11 08:39:00,20.6,16.0,30.19,NW,314,0.0,0.0,82,0.00,,,0.00,WUHU216DAVISWMX,2013-02-11 13:39:00,
2013-02-11 08:44:00,20.8,16.2,30.18,NW,314,0.0,0.0,82,0.00,,,0.00,WUHU216DAVISWMX,2013-02-11 13:44:00,
2013-02-11 08:49:00,21.1,16.7,30.18,NW,314,0.0,0.0,83,0.00,,,0.00,WUHU216DAVISWMX,2013-02-11 13:49:00,
2013-02-11 08:54:00,21.4,17.0,30.17,NW,314,0.0,0.0,83,0.00,,,0.00,WUHU216DAVISWMX,2013-02-11 13:54:00,
2013-02-11 08:59:00,21.7,17.6,30.17,NW,314,0.0,0.0,84,0.00,,,0.00,WUHU216DAVISWMX,2013-02-11 13:59:00,
2013-02-11 09:04:00,21.9,17.8,30.16,NW,314,0.0,0.0,84,0.00,,,0.00,WUHU216DAVISWMX,2013-02-11 14:04:00,
2013-02-11 09:09:00,22.2,18.1,30.16,NW,314,0.0,0.0,84,0.00,,,0.00,WUHU216DAVISWMX,2013-02-11 14:09:00,
2013-02-11 09:14:00,22.4,18.5,30.15,NW,314,0.0,0.0,85,0.00,,,0.00,WUHU216DAVISWMX,2013-02-11 14:14:00,
2013-02-11 09:19:00,22.6,19.0,30.16,NW,314,0.0,0.0,86,0.00,,,0.00,WUHU216DAVISWMX,2013-02-11 14:19:00,
2013-02-11 09:24:00,22.9,19.6,30.15,NW,314,0.0,0.0,87,0.00,,,0.00,WUHU216DAVISWMX,2013-02-11 14:24:00,
2013-02-11 09:29:00,23.1,19.8,30.15,NW,314,1.0,1.0,87,0.00,,,0.00,WUHU216DAVISWMX,2013-02-11 14:29:00,
2013-02-11 09:34:00,23.2,19.9,30.14,NW,314,0.0,1.0,87,0.00,,,0.00,WUHU216DAVISWMX,2013-02-11 14:34:00,
2013-02-11 09:39:00,23.3,20.0,30.14,NW,314,0.0,1.0,87,0.00,,,0.00,WUHU216DAVISWMX,2013-02-11 14:39:00,
2013-02-11 09:44:00,23.4,20.3,30.15,NW,314,0.0,1.0,88,0.00,,,0.00,WUHU216DAVISWMX,2013-02-11 14:44:00,
2013-02-11 09:49:00,23.5,20.4,30.14,NW,314,0.0,2.0,88,0.00,,,0.00,WUHU216DAVISWMX,2013-02-11 14:49:00,
2013-02-11 09:54:00,23.5,20.7,30.14,NW,314,0.0,2.0,89,0.00,,,0.00,WUHU216DAVISWMX,2013-02-11 14:54:00,
2013-02-11 09:59:00,23.5,20.7,30.14,NW,314,0.0,0.0,89,0.00,,,0.00,WUHU216DAVISWMX,2013-02-11 14:59:00,
2013-02-11 10:04:00,23.5,20.7,30.13,NW,314,0.0,0.0,89,0.00,,,0.00,WUHU216DAVISWMX,2013-02-11 15:04:00,
2013-02-11 10:09:00,23.6,21.0,30.12,NW,314,0.0,0.0,90,0.00,,,0.00,WUHU216DAVISWMX,2013-02-11 15:09:00,
2013-02-11 10:14:00,23.7,21.1,30.12,NW,314,0.0,0.0,90,0.00,,,0.00,WUHU216DAVISWMX,2013-02-11 15:14:00,
2013-02-11 10:19:00,23.8,21.2,30.12,NW,314,0.0,0.0,90,0.00,,,0.00,WUHU216DAVISWMX,2013-02-11 15:19:00,
2013-02-11 10:24:00,23.9,21.6,30.11,NW,314,0.0,0.0,91,0.00,,,0.00,WUHU216DAVISWMX,2013-02-11 15:24:00,
2013-02-11 10:29:00,24.0,21.7,30.11,NW,314,0.0,0.0,91,0.00,,,0.00,WUHU216DAVISWMX,2013-02-11 15:29:00,
2013-02-11 10:34:00,24.1,21.8,30.11,NW,314,0.0,0.0,91,0.00,,,0.00,WUHU216DAVISWMX,2013-02-11 15:34:00,
2013-02-11 10:39:00,24.0,22.0,30.10,NW,314,0.0,0.0,92,0.00,,,0.00,WUHU216DAVISWMX,2013-02-11 15:39:00,
2013-02-11 10:44:00,24.3,22.0,30.10,NW,314,0.0,0.0,91,0.00,,,0.00,WUHU216DAVISWMX,2013-02-11 15:44:00,
2013-02-11 10:49:00,24.5,22.5,30.09,NW,314,0.0,0.0,92,0.00,,,0.00,WUHU216DAVISWMX,2013-02-11 15:49:00,
2013-02-11 10:54:00,24.7,22.7,30.08,NW,314,0.0,0.0,92,0.00,,,0.00,WUHU216DAVISWMX,2013-02-11 15:54:00,
2013-02-11 10:59:00,24.9,22.9,30.08,NW,314,0.0,0.0,92,0.00,,,0.00,WUHU216DAVISWMX,2013-02-11 15:59:00,
2013-02-11 11:04:00,25.1,23.1,30.07,NW,314,0.0,0.0,92,0.00,,,0.00,WUHU216DAVISWMX,2013-02-11 16:04:00,
2013-02-11 11:09:00,25.2,23.2,30.06,NW,314,0.0,0.0,92,0.00,,,0.00,WUHU216DAVISWMX,2013-02-11 16:09:00,
2013-02-11 11:14:00,25.3,23.3,30.06,NW,314,0.0,0.0,92,0.00,,,0.00,WUHU216DAVISWMX,2013-02-11 16:14:00,
2013-02-11 11:19:00,25.6,23.5,30.05,NW,314,0.0,0.0,92,0.00,,,0.00,WUHU216DAVISWMX,2013-02-11 16:19:00,
2013-02-11 11:24:00,25.7,23.6,30.04,NW,314,0.0,0.0,92,0.00,,,0.00,WUHU216DAVISWMX,2013-02-11 16:24:00,
2013-02-11 11:29:00,26.2,24.1,30.04,NW,314,0.0,0.0,92,0.00,,,0.00,WUHU216DAVISWMX,2013-02-11 16:29:00,
2013-02-11 11:34:00,26.5,24.7,30.03,NW,314,0.0,0.0,93,0.00,,,0.00,WUHU216DAVISWMX,2013-02-11 16:34:00,
2013-02-11 11:39:00,26.7,24.9,30.03,NW,314,0.0,1.0,93,0.00,,,0.00,WUHU216DAVISWMX,2013-02-11 16:39:00,
2013-02-11 11:44:00,26.9,25.1,30.02,NW,314,0.0,1.0,93,0.00,,,0.00,WUHU216DAVISWMX,2013-02-11 16:44:00,
2013-02-11 11:49:00,27.0,25.2,30.01,NW,314,0.0,0.0,93,0.00,,,0.00,WUHU216DAVISWMX,2013-02-11 16:49:00,
2013-02-11 11:54:00,27.2,25.7,30.01,NW,314,0.0,0.0,94,0.00,,,0.00,WUHU216DAVISWMX,2013-02-11 16:54:00,
2013-02-11 11:59:00,27.4,25.9,30.00,NW,314,0.0,0.0,94,0.00,,,0.00,WUHU216DAVISWMX,2013-02-11 16:59:00,
2013-02-11 12:04:00,27.5,26.0,30.00,NW,314,1.0,2.0,94,0.00,,,0.00,WUHU216DAVISWMX,2013-02-11 17:04:00,
2013-02-11 12:09:00,27.6,26.1,29.99,NW,314,0.0,2.0,94,0.00,,,0.00,WUHU216DAVISWMX,2013-02-11 17:09:00,
2013-02-11 12:14:00,27.8,26.5,29.98,NW,314,0.0,1.0,95,0.00,,,0.00,WUHU216DAVISWMX,2013-02-11 17:14:00,
2013-02-11 12:19:00,27.9,26.6,29.98,NW,314,0.0,0.0,95,0.00,,,0.00,WUHU216DAVISWMX,2013-02-11 17:19:00,
2013-02-11 12:24:00,27.8,26.5,29.98,NW,314,3.0,3.0,95,0.00,,,0.00,WUHU216DAVISWMX,2013-02-11 17:24:00,
2013-02-11 12:29:00,27.9,26.9,29.97,NW,314,1.0,3.0,96,0.00,,,0.00,WUHU216DAVISWMX,2013-02-11 17:29:00,
2013-02-11 12:34:00,28.1,26.8,29.96,NW,314,0.0,3.0,95,0.00,,,0.00,WUHU216DAVISWMX,2013-02-11 17:34:00,
2013-02-11 12:39:00,28.2,26.9,29.96,NW,314,0.0,1.0,95,0.00,,,0.00,WUHU216DAVISWMX,2013-02-11 17:39:00,
2013-02-11 12:44:00,28.5,27.5,29.95,NW,314,0.0,0.0,96,0.00,,,0.00,WUHU216DAVISWMX,2013-02-11 17:44:00,
2013-02-11 12:49:00,28.6,27.6,29.94,NW,314,0.0,0.0,96,0.00,,,0.00,WUHU216DAVISWMX,2013-02-11 17:49:00,
2013-02-11 12:54:00,28.6,27.6,29.94,NW,314,0.0,0.0,96,0.00,,,0.00,WUHU216DAVISWMX,2013-02-11 17:54:00,
2013-02-11 12:59:00,28.9,27.9,29.93,NW,314,1.0,1.0,96,0.00,,,0.00,WUHU216DAVISWMX,2013-02-11 17:59:00,
2013-02-11 13:04:00,28.9,27.9,29.91,NW,314,0.0,1.0,96,0.00,,,0.00,WUHU216DAVISWMX,2013-02-11 18:04:00,
2013-02-11 13:09:00,29.0,28.0,29.91,NW,314,0.0,1.0,96,0.00,,,0.00,WUHU216DAVISWMX,2013-02-11 18:09:00,
2013-02-11 13:14:00,29.3,28.3,29.91,NW,314,1.0,2.0,96,0.00,,,0.00,WUHU216DAVISWMX,2013-02-11 18:14:00,
2013-02-11 13:19:00,29.4,28.6,29.91,NW,314,0.0,2.0,97,0.00,,,0.00,WUHU216DAVISWMX,2013-02-11 18:19:00,
2013-02-11 13:24:00,29.5,28.5,29.91,NW,314,2.0,2.0,96,0.00,,,0.00,WUHU216DAVISWMX,2013-02-11 18:24:00,
2013-02-11 13:29:00,29.5,28.5,29.90,NW,314,0.0,2.0,96,0.00,,,0.00,WUHU216DAVISWMX,2013-02-11 18:29:00,
2013-02-11 13:35:00,29.5,28.5,29.89,NW,314,0.0,2.0,96,0.00,,,0.00,WUHU216DAVISWMX,2013-02-11 18:35:00,
2013-02-11 13:40:00,29.6,28.6,29.88,NW,314,0.0,1.0,96,0.00,,,0.00,WUHU216DAVISWMX,2013-02-11 18:40:00,
2013-02-11 13:45:00,29.8,29.0,29.88,NW,314,0.0,1.0,97,0.00,,,0.00,WUHU216DAVISWMX,2013-02-11 18:45:00,
2013-02-11 13:50:00,29.8,29.0,29.88,NW,314,0.0,1.0,97,0.00,,,0.00,WUHU216DAVISWMX,2013-02-11 18:50:00,
2013-02-11 13:55:00,29.9,29.1,29.87,NW,314,0.0,0.0,97,0.00,,,0.00,WUHU216DAVISWMX,2013-02-11 18:55:00,
2013-02-11 14:00:00,30.0,29.2,29.86,NW,314,0.0,0.0,97,0.00,,,0.00,WUHU216DAVISWMX,2013-02-11 19:00:00,
2013-02-11 14:05:00,30.0,29.2,29.87,NW,314,0.0,0.0,97,0.00,,,0.00,WUHU216DAVISWMX,2013-02-11 19:05:00,
2013-02-11 14:10:00,29.9,29.1,29.86,NW,314,0.0,2.0,97,0.00,,,0.00,WUHU216DAVISWMX,2013-02-11 19:10:00,
2013-02-11 14:15:00,30.1,29.3,29.86,NW,314,0.0,2.0,97,0.00,,,0.00,WUHU216DAVISWMX,2013-02-11 19:15:00,
2013-02-11 14:20:00,30.1,29.3,29.86,NW,314,0.0,1.0,97,0.00,,,0.00,WUHU216DAVISWMX,2013-02-11 19:20:00,
2013-02-11 14:25:00,30.3,29.5,29.85,NW,314,0.0,1.0,97,0.00,,,0.00,WUHU216DAVISWMX,2013-02-11 19:25:00,
2013-02-11 14:30:00,30.3,29.5,29.86,NW,314,0.0,0.0,97,0.00,,,0.00,WUHU216DAVISWMX,2013-02-11 19:30:00,
2013-02-11 14:35:00,30.3,29.5,29.86,NW,314,0.0,0.0,97,0.00,,,0.00,WUHU216DAVISWMX,2013-02-11 19:35:00,
2013-02-11 14:40:00,30.3,29.5,29.85,NW,314,0.0,0.0,97,0.00,,,0.00,WUHU216DAVISWMX,2013-02-11 19:40:00,
2013-02-11 14:45:00,30.3,29.5,29.85,NW,314,0.0,0.0,97,0.00,,,0.00,WUHU216DAVISWMX,2013-02-11 19:45:00,
2013-02-11 14:50:00,30.4,29.6,29.85,NW,314,0.0,0.0,97,0.00,,,0.00,WUHU216DAVISWMX,2013-02-11 19:50:00,
2013-02-11 14:55:00,30.5,30.0,29.84,NW,314,0.0,0.0,98,0.00,,,0.00,WUHU216DAVISWMX,2013-02-11 19:55:00,
2013-02-11 15:00:00,30.5,29.7,29.84,NW,314,0.0,0.0,97,0.00,,,0.00,WUHU216DAVISWMX,2013-02-11 20:00:00,
2013-02-11 15:05:00,30.5,29.7,29.84,NW,314,0.0,0.0,97,0.00,,,0.00,WUHU216DAVISWMX,2013-02-11 20:05:00,
2013-02-11 15:10:00,30.6,29.8,29.84,NW,314,0.0,0.0,97,0.00,,,0.00,WUHU216DAVISWMX,2013-02-11 20:10:00,
2013-02-11 15:15:00,30.6,29.8,29.83,NW,314,0.0,0.0,97,0.00,,,0.00,WUHU216DAVISWMX,2013-02-11 20:15:00,
2013-02-11 15:20:00,30.7,30.2,29.83,NW,314,0.0,0.0,98,0.00,,,0.00,WUHU216DAVISWMX,2013-02-11 20:20:00,
2013-02-11 15:25:00,30.7,30.2,29.83,NW,314,0.0,0.0,98,0.00,,,0.00,WUHU216DAVISWMX,2013-02-11 20:25:00,
2013-02-11 15:30:00,30.7,30.2,29.82,NW,314,0.0,0.0,98,0.00,,,0.00,WUHU216DAVISWMX,2013-02-11 20:30:00,
2013-02-11 15:35:00,30.8,30.3,29.82,NW,314,0.0,0.0,98,0.00,,,0.00,WUHU216DAVISWMX,2013-02-11 20:35:00,
2013-02-11 15:40:00,30.9,30.4,29.83,NW,314,0.0,0.0,98,0.00,,,0.00,WUHU216DAVISWMX,2013-02-11 20:40:00,
2013-02-11 15:45:00,31.0,30.5,29.82,NW,314,0.0,0.0,98,0.00,,,0.00,WUHU216DAVISWMX,2013-02-11 20:45:00,
2013-02-11 15:50:00,31.1,30.6,29.81,NW,314,0.0,0.0,98,0.00,,,0.00,WUHU216DAVISWMX,2013-02-11 20:50:00,
2013-02-11 15:55:00,31.3,30.8,29.80,NW,314,0.0,0.0,98,0.00,,,0.00,WUHU216DAVISWMX,2013-02-11 20:55:00,
2013-02-11 16:00:00,31.4,30.9,29.80,NW,314,0.0,0.0,98,0.00,,,0.00,WUHU216DAVISWMX,2013-02-11 21:00:00,
2013-02-11 16:05:00,31.5,31.0,29.80,NW,314,0.0,0.0,98,0.00,,,0.00,WUHU216DAVISWMX,2013-02-11 21:05:00,
2013-02-11 16:10:00,31.5,31.0,29.79,NW,314,0.0,0.0,98,0.00,,,0.00,WUHU216DAVISWMX,2013-02-11 21:10:00,
2013-02-11 16:15:00,31.6,31.1,29.79,NW,314,0.0,0.0,98,0.00,,,0.00,WUHU216DAVISWMX,2013-02-11 21:15:00,
2013-02-11 16:20:00,31.7,30.9,29.78,NW,314,0.0,0.0,97,0.00,,,0.00,WUHU216DAVISWMX,2013-02-11 21:20:00,
2013-02-11 16:25:00,31.7,30.9,29.78,NW,314,0.0,0.0,97,0.00,,,0.00,WUHU216DAVISWMX,2013-02-11 21:25:00,
2013-02-11 16:30:00,31.6,30.8,29.77,NW,314,0.0,0.0,97,0.00,,,0.00,WUHU216DAVISWMX,2013-02-11 21:30:00,
2013-02-11 16:35:00,31.7,30.9,29.77,NW,314,0.0,0.0,97,0.00,,,0.00,WUHU216DAVISWMX,2013-02-11 21:35:00,
2013-02-11 16:40:00,31.6,30.8,29.77,NW,314,0.0,0.0,97,0.00,,,0.00,WUHU216DAVISWMX,2013-02-11 21:40:00,
2013-02-11 16:45:00,31.6,30.8,29.77,NW,314,0.0,0.0,97,0.00,,,0.00,WUHU216DAVISWMX,2013-02-11 21:45:00,
2013-02-11 16:50:00,31.6,31.1,29.77,NW,314,0.0,0.0,98,0.00,,,0.00,WUHU216DAVISWMX,2013-02-11 21:50:00,
2013-02-11 16:55:00,31.6,30.8,29.76,NW,314,0.0,0.0,97,0.00,,,0.00,WUHU216DAVISWMX,2013-02-11 21:55:00,
2013-02-11 17:00:00,31.6,31.1,29.76,NW,314,0.0,0.0,98,0.00,,,0.00,WUHU216DAVISWMX,2013-02-11 22:00:00,
2013-02-11 17:05:00,31.6,31.1,29.76,NW,314,0.0,0.0,98,0.00,,,0.00,WUHU216DAVISWMX,2013-02-11 22:05:00,
2013-02-11 17:10:00,31.6,31.1,29.76,NW,314,0.0,0.0,98,0.00,,,0.00,WUHU216DAVISWMX,2013-02-11 22:10:00,
2013-02-11 17:15:00,31.6,31.1,29.76,NW,314,0.0,0.0,98,0.00,,,0.00,WUHU216DAVISWMX,2013-02-11 22:15:00,
2013-02-11 17:20:00,31.5,31.0,29.75,NW,314,0.0,0.0,98,0.00,,,0.00,WUHU216DAVISWMX,2013-02-11 22:20:00,
2013-02-11 17:25:00,31.6,31.1,29.75,NW,314,0.0,0.0,98,0.00,,,0.00,WUHU216DAVISWMX,2013-02-11 22:25:00,
2013-02-11 17:30:00,31.6,31.1,29.75,NW,314,0.0,0.0,98,0.00,,,0.00,WUHU216DAVISWMX,2013-02-11 22:30:00,
2013-02-11 17:35:00,31.6,31.1,29.75,NW,314,0.0,0.0,98,0.00,,,0.00,WUHU216DAVISWMX,2013-02-11 22:35:00,
2013-02-11 17:40:00,31.5,31.0,29.74,NW,314,0.0,0.0,98,0.00,,,0.00,WUHU216DAVISWMX,2013-02-11 22:40:00,
2013-02-11 17:45:00,31.6,31.1,29.75,NW,314,0.0,0.0,98,0.00,,,0.00,WUHU216DAVISWMX,2013-02-11 22:45:00,
2013-02-11 17:50:00,31.6,31.1,29.74,NW,314,0.0,0.0,98,0.00,,,0.00,WUHU216DAVISWMX,2013-02-11 22:50:00,
2013-02-11 17:55:00,31.6,31.1,29.73,NW,314,0.0,0.0,98,0.00,,,0.00,WUHU216DAVISWMX,2013-02-11 22:55:00,
2013-02-11 18:00:00,31.7,31.2,29.74,NW,314,0.0,0.0,98,0.00,,,0.00,WUHU216DAVISWMX,2013-02-11 23:00:00,
2013-02-11 18:05:00,31.7,31.2,29.74,NW,314,0.0,0.0,98,0.00,,,0.00,WUHU216DAVISWMX,2013-02-11 23:05:00,
2013-02-11 18:10:00,31.7,31.2,29.74,NW,314,0.0,0.0,98,0.00,,,0.00,WUHU216DAVISWMX,2013-02-11 23:10:00,
2013-02-11 18:15:00,31.7,31.2,29.74,NW,314,0.0,0.0,98,0.00,,,0.00,WUHU216DAVISWMX,2013-02-11 23:15:00,
2013-02-11 18:20:00,31.7,31.2,29.74,NW,314,0.0,0.0,98,0.00,,,0.00,WUHU216DAVISWMX,2013-02-11 23:20:00,
2013-02-11 18:25:00,31.7,31.2,29.73,NW,314,0.0,0.0,98,0.00,,,0.00,WUHU216DAVISWMX,2013-02-11 23:25:00,
2013-02-11 18:30:00,31.8,31.3,29.73,NW,314,0.0,0.0,98,0.00,,,0.00,WUHU216DAVISWMX,2013-02-11 23:30:00,
2013-02-11 18:35:00,31.8,31.3,29.73,NW,314,0.0,0.0,98,0.00,,,0.00,WUHU216DAVISWMX,2013-02-11 23:35:00,
2013-02-11 18:40:00,31.8,31.3,29.73,NW,314,0.0,0.0,98,0.00,,,0.00,WUHU216DAVISWMX,2013-02-11 23:40:00,
2013-02-11 18:45:00,31.8,31.3,29.73,NW,314,0.0,0.0,98,0.00,,,0.00,WUHU216DAVISWMX,2013-02-11 23:45:00,
2013-02-11 18:50:00,31.9,31.4,29.73,NW,314,0.0,0.0,98,0.00,,,0.00,WUHU216DAVISWMX,2013-02-11 23:50:00,
2013-02-11 18:55:00,31.9,31.4,29.73,NW,314,0.0,0.0,98,0.00,,,0.00,WUHU216DAVISWMX,2013-02-11 23:55:00,
2013-02-11 19:00:00,31.8,31.3,29.73,NW,314,0.0,0.0,98,0.00,,,0.00,WUHU216DAVISWMX,2013-02-12 00:00:00,
2013-02-11 19:05:00,31.9,31.6,29.73,NW,314,0.0,0.0,99,0.00,,,0.00,WUHU216DAVISWMX,2013-02-12 00:05:00,
2013-02-11 19:10:00,31.9,31.4,29.72,NW,314,0.0,0.0,98,0.00,,,0.00,WUHU216DAVISWMX,2013-02-12 00:10:00,
2013-02-11 19:15:00,31.9,31.4,29.72,NW,314,0.0,0.0,98,0.00,,,0.00,WUHU216DAVISWMX,2013-02-12 00:15:00,
2013-02-11 19:20:00,31.9,31.4,29.72,NW,314,0.0,0.0,98,0.00,,,0.00,WUHU216DAVISWMX,2013-02-12 00:20:00,
2013-02-11 19:25:00,31.9,31.4,29.71,NW,314,0.0,0.0,98,0.00,,,0.00,WUHU216DAVISWMX,2013-02-12 00:25:00,
2013-02-11 19:30:00,32.0,31.7,29.71,NW,314,0.0,0.0,99,0.00,,,0.00,WUHU216DAVISWMX,2013-02-12 00:30:00,
2013-02-11 19:35:00,32.0,31.7,29.71,NW,314,0.0,0.0,99,0.00,,,0.00,WUHU216DAVISWMX,2013-02-12 00:35:00,
2013-02-11 19:40:00,31.9,31.6,29.70,NW,314,0.0,0.0,99,0.00,,,0.00,WUHU216DAVISWMX,2013-02-12 00:40:00,
2013-02-11 19:45:00,31.9,31.6,29.70,NW,314,0.0,0.0,99,0.00,,,0.00,WUHU216DAVISWMX,2013-02-12 00:45:00,
2013-02-11 19:50:00,31.9,31.6,29.70,NW,314,0.0,0.0,99,0.00,,,0.00,WUHU216DAVISWMX,2013-02-12 00:50:00,
2013-02-11 19:55:00,31.9,31.6,29.70,NW,314,0.0,0.0,99,0.00,,,0.00,WUHU216DAVISWMX,2013-02-12 00:55:00,
2013-02-11 20:00:00,31.9,31.6,29.70,NW,314,0.0,0.0,99,0.00,,,0.00,WUHU216DAVISWMX,2013-02-12 01:00:00,
2013-02-11 20:05:00,31.9,31.6,29.70,NW,314,0.0,0.0,99,0.00,,,0.00,WUHU216DAVISWMX,2013-02-12 01:05:00,
2013-02-11 20:10:00,31.9,31.6,29.69,NW,314,0.0,0.0,99,0.00,,,0.00,WUHU216DAVISWMX,2013-02-12 01:10:00,
2013-02-11 20:15:00,31.9,31.6,29.69,NW,314,0.0,0.0,99,0.00,,,0.00,WUHU216DAVISWMX,2013-02-12 01:15:00,
2013-02-11 20:20:00,31.9,31.9,29.69,NW,314,0.0,0.0,100,0.00,,,0.00,WUHU216DAVISWMX,2013-02-12 01:20:00,
2013-02-11 20:25:00,31.9,31.9,29.69,NW,314,0.0,0.0,100,0.00,,,0.00,WUHU216DAVISWMX,2013-02-12 01:25:00,
2013-02-11 20:30:00,31.9,31.6,29.68,NW,314,0.0,0.0,99,0.00,,,0.00,WUHU216DAVISWMX,2013-02-12 01:30:00,
2013-02-11 20:35:00,32.0,31.7,29.68,NW,314,0.0,0.0,99,0.00,,,0.00,WUHU216DAVISWMX,2013-02-12 01:35:00,
2013-02-11 20:40:00,32.0,32.0,29.68,NW,314,0.0,0.0,100,0.00,,,0.00,WUHU216DAVISWMX,2013-02-12 01:40:00,
2013-02-11 20:45:00,31.9,31.9,29.68,NW,314,0.0,0.0,100,0.00,,,0.00,WUHU216DAVISWMX,2013-02-12 01:45:00,
2013-02-11 20:50:00,31.9,31.9,29.69,NW,314,0.0,0.0,100,0.00,,,0.00,WUHU216DAVISWMX,2013-02-12 01:50:00,
2013-02-11 20:55:00,32.0,31.7,29.68,NW,314,0.0,0.0,99,0.00,,,0.00,WUHU216DAVISWMX,2013-02-12 01:55:00,
2013-02-11 21:00:00,31.9,31.9,29.68,NW,314,0.0,0.0,100,0.00,,,0.00,WUHU216DAVISWMX,2013-02-12 02:00:00,
2013-02-11 21:05:00,31.9,31.9,29.68,NW,314,0.0,0.0,100,0.00,,,0.00,WUHU216DAVISWMX,2013-02-12 02:05:00,
2013-02-11 21:11:00,31.9,31.9,29.69,NW,314,0.0,0.0,100,0.00,,,0.00,WUHU216DAVISWMX,2013-02-12 02:11:00,
2013-02-11 21:16:00,32.0,32.0,29.68,NW,314,0.0,0.0,100,0.00,,,0.00,WUHU216DAVISWMX,2013-02-12 02:16:00,
2013-02-11 21:21:00,32.0,32.0,29.68,NW,314,0.0,0.0,100,0.00,,,0.00,WUHU216DAVISWMX,2013-02-12 02:21:00,
2013-02-11 21:26:00,32.0,32.0,29.68,NW,314,0.0,0.0,100,0.00,,,0.00,WUHU216DAVISWMX,2013-02-12 02:26:00,
2013-02-11 21:31:00,32.0,32.0,29.69,NW,314,0.0,0.0,100,0.00,,,0.00,WUHU216DAVISWMX,2013-02-12 02:31:00,
2013-02-11 21:36:00,32.0,32.0,29.69,NW,314,0.0,0.0,100,0.00,,,0.00,WUHU216DAVISWMX,2013-02-12 02:36:00,
2013-02-11 21:41:00,32.0,32.0,29.68,NW,314,0.0,0.0,100,0.00,,,0.00,WUHU216DAVISWMX,2013-02-12 02:41:00,
2013-02-11 21:46:00,32.0,32.0,29.68,NW,314,0.0,0.0,100,0.00,,,0.00,WUHU216DAVISWMX,2013-02-12 02:46:00,
2013-02-11 21:51:00,32.1,32.1,29.68,NW,314,0.0,0.0,100,0.00,,,0.00,WUHU216DAVISWMX,2013-02-12 02:51:00,
2013-02-11 21:56:00,32.1,32.1,29.68,NW,314,0.0,0.0,100,0.00,,,0.00,WUHU216DAVISWMX,2013-02-12 02:56:00,
2013-02-11 22:01:00,32.1,32.1,29.67,NW,314,0.0,0.0,100,0.00,,,0.00,WUHU216DAVISWMX,2013-02-12 03:01:00,
2013-02-11 22:06:00,32.1,32.1,29.67,NW,314,0.0,0.0,100,0.00,,,0.00,WUHU216DAVISWMX,2013-02-12 03:06:00,
2013-02-11 22:11:00,32.2,32.2,29.67,NW,314,0.0,0.0,100,0.00,,,0.00,WUHU216DAVISWMX,2013-02-12 03:11:00,
2013-02-11 22:16:00,32.2,32.2,29.66,NW,314,0.0,0.0,100,0.00,,,0.00,WUHU216DAVISWMX,2013-02-12 03:16:00,
2013-02-11 22:21:00,32.3,32.3,29.67,NW,314,0.0,0.0,100,0.00,,,0.00,WUHU216DAVISWMX,2013-02-12 03:21:00,
2013-02-11 22:26:00,32.2,32.2,29.67,NW,314,0.0,0.0,100,0.00,,,0.00,WUHU216DAVISWMX,2013-02-12 03:26:00,
2013-02-11 22:31:00,32.2,32.2,29.67,NW,314,0.0,0.0,100,0.00,,,0.00,WUHU216DAVISWMX,2013-02-12 03:31:00,
2013-02-11 22:36:00,32.2,32.2,29.66,NW,314,0.0,0.0,100,0.00,,,0.00,WUHU216DAVISWMX,2013-02-12 03:36:00,
2013-02-11 22:41:00,32.2,32.2,29.66,NW,314,0.0,0.0,100,0.00,,,0.00,WUHU216DAVISWMX,2013-02-12 03:41:00,
2013-02-11 22:46:00,32.2,32.2,29.66,NW,314,0.0,0.0,100,0.00,,,0.00,WUHU216DAVISWMX,2013-02-12 03:46:00,
2013-02-11 22:51:00,32.2,32.2,29.66,NW,314,0.0,0.0,100,0.00,,,0.00,WUHU216DAVISWMX,2013-02-12 03:51:00,
2013-02-11 22:56:00,32.2,32.2,29.67,NW,314,0.0,0.0,100,0.00,,,0.00,WUHU216DAVISWMX,2013-02-12 03:56:00,
2013-02-11 23:01:00,32.2,32.2,29.67,NW,314,0.0,0.0,100,0.00,,,0.00,WUHU216DAVISWMX,2013-02-12 04:01:00,
2013-02-11 23:06:00,32.1,32.1,29.67,NW,314,0.0,0.0,100,0.00,,,0.00,WUHU216DAVISWMX,2013-02-12 04:06:00,
2013-02-11 23:11:00,32.0,32.0,29.67,NW,314,0.0,0.0,100,0.00,,,0.00,WUHU216DAVISWMX,2013-02-12 04:11:00,
2013-02-11 23:16:00,32.0,32.0,29.67,NW,314,0.0,0.0,100,0.00,,,0.00,WUHU216DAVISWMX,2013-02-12 04:16:00,
2013-02-11 23:21:00,32.0,32.0,29.67,NW,314,0.0,0.0,100,0.00,,,0.00,WUHU216DAVISWMX,2013-02-12 04:21:00,
2013-02-11 23:26:00,32.0,32.0,29.67,NW,314,0.0,0.0,100,0.00,,,0.00,WUHU216DAVISWMX,2013-02-12 04:26:00,
2013-02-11 23:31:00,31.9,31.9,29.68,NW,314,0.0,0.0,100,0.00,,,0.00,WUHU216DAVISWMX,2013-02-12 04:31:00,
2013-02-11 23:36:00,31.8,31.8,29.68,NW,314,0.0,0.0,100,0.00,,,0.00,WUHU216DAVISWMX,2013-02-12 04:36:00,
2013-02-11 23:41:00,31.8,31.8,29.67,NW,314,0.0,0.0,100,0.00,,,0.00,WUHU216DAVISWMX,2013-02-12 04:41:00,
2013-02-11 23:46:00,31.9,31.9,29.67,NW,314,0.0,0.0,100,0.00,,,0.00,WUHU216DAVISWMX,2013-02-12 04:46:00,
2013-02-11 23:51:00,31.9,31.9,29.67,NW,314,0.0,0.0,100,0.00,,,0.00,WUHU216DAVISWMX,2013-02-12 04:51:00,
2013-02-11 23:56:00,31.9,31.9,29.67,NW,314,0.0,0.0,100,0.00,,,0.00,WUHU216DAVISWMX,2013-02-12 04:56:00,